sensor_id;sensor_type;location;lat;lon;timestamp;temperature;humidity
15700;DHT22;7950;42.744;23.174;2022-12-07T00:01:44;5.50;99.90
15700;DHT22;7950;42.744;23.174;2022-12-07T00:04:14;5.50;99.90
15700;DHT22;7950;42.744;23.174;2022-12-07T00:06:46;5.50;99.90
15700;DHT22;7950;42.744;23.174;2022-12-07T00:09:17;5.50;99.90
15700;DHT22;7950;42.744;23.174;2022-12-07T00:11:48;5.50;99.90
15700;DHT22;7950;42.744;23.174;2022-12-07T00:14:42;5.50;99.90
15700;DHT22;7950;42.744;23.174;2022-12-07T00:17:35;5.50;99.90
15700;DHT22;7950;42.744;23.174;2022-12-07T00:20:05;5.50;99.90
15700;DHT22;7950;42.744;23.174;2022-12-07T00:22:34;5.50;99.90
15700;DHT22;7950;42.744;23.174;2022-12-07T00:25:03;5.50;99.90
15700;DHT22;7950;42.744;23.174;2022-12-07T00:27:57;5.50;99.90
15700;DHT22;7950;42.744;23.174;2022-12-07T00:30:28;5.50;99.90
15700;DHT22;7950;42.744;23.174;2022-12-07T00:32:57;5.50;99.90
15700;DHT22;7950;42.744;23.174;2022-12-07T00:35:25;5.50;99.90
15700;DHT22;7950;42.744;23.174;2022-12-07T00:37:55;5.50;99.90
15700;DHT22;7950;42.744;23.174;2022-12-07T00:40:23;5.50;99.90
15700;DHT22;7950;42.744;23.174;2022-12-07T00:43:17;5.50;99.90
15700;DHT22;7950;42.744;23.174;2022-12-07T00:45:45;5.50;99.90
15700;DHT22;7950;42.744;23.174;2022-12-07T00:48:14;5.60;99.90
15700;DHT22;7950;42.744;23.174;2022-12-07T00:50:42;5.70;99.90
15700;DHT22;7950;42.744;23.174;2022-12-07T00:53:12;5.60;99.90
15700;DHT22;7950;42.744;23.174;2022-12-07T00:55:42;5.60;99.90
15700;DHT22;7950;42.744;23.174;2022-12-07T00:58:10;5.60;99.90
15700;DHT22;7950;42.744;23.174;2022-12-07T01:00:40;5.50;99.90
15700;DHT22;7950;42.744;23.174;2022-12-07T01:03:10;5.50;99.90
15700;DHT22;7950;42.744;23.174;2022-12-07T01:05:40;5.50;99.90
15700;DHT22;7950;42.744;23.174;2022-12-07T01:08:08;5.50;99.90
15700;DHT22;7950;42.744;23.174;2022-12-07T01:10:44;5.50;99.90
15700;DHT22;7950;42.744;23.174;2022-12-07T01:13:12;5.50;99.90
15700;DHT22;7950;42.744;23.174;2022-12-07T01:15:41;5.50;99.90
15700;DHT22;7950;42.744;23.174;2022-12-07T01:18:10;5.50;99.90
15700;DHT22;7950;42.744;23.174;2022-12-07T01:20:39;5.50;99.90
15700;DHT22;7950;42.744;23.174;2022-12-07T01:23:08;5.50;99.90
15700;DHT22;7950;42.744;23.174;2022-12-07T01:25:36;5.50;99.90
15700;DHT22;7950;42.744;23.174;2022-12-07T01:28:06;5.50;99.90
15700;DHT22;7950;42.744;23.174;2022-12-07T01:30:34;5.50;99.90
15700;DHT22;7950;42.744;23.174;2022-12-07T01:33:03;5.50;99.90
15700;DHT22;7950;42.744;23.174;2022-12-07T01:35:33;5.50;99.90
15700;DHT22;7950;42.744;23.174;2022-12-07T01:38:02;5.50;99.90
15700;DHT22;7950;42.744;23.174;2022-12-07T01:40:30;5.50;99.90
15700;DHT22;7950;42.744;23.174;2022-12-07T01:43:19;5.40;99.90
15700;DHT22;7950;42.744;23.174;2022-12-07T01:45:48;5.40;99.90
15700;DHT22;7950;42.744;23.174;2022-12-07T01:48:18;5.40;99.90
15700;DHT22;7950;42.744;23.174;2022-12-07T01:50:48;5.40;99.90
15700;DHT22;7950;42.744;23.174;2022-12-07T01:53:18;5.40;99.90
15700;DHT22;7950;42.744;23.174;2022-12-07T01:55:50;5.40;99.90
15700;DHT22;7950;42.744;23.174;2022-12-07T01:58:21;5.40;99.90
15700;DHT22;7950;42.744;23.174;2022-12-07T02:00:49;5.40;99.90
15700;DHT22;7950;42.744;23.174;2022-12-07T02:03:21;5.30;99.90
15700;DHT22;7950;42.744;23.174;2022-12-07T02:06:04;5.40;99.90
15700;DHT22;7950;42.744;23.174;2022-12-07T02:08:35;5.40;99.90
15700;DHT22;7950;42.744;23.174;2022-12-07T02:11:05;5.40;99.90
15700;DHT22;7950;42.744;23.174;2022-12-07T02:13:37;5.40;99.90
15700;DHT22;7950;42.744;23.174;2022-12-07T02:16:17;5.40;99.90
15700;DHT22;7950;42.744;23.174;2022-12-07T02:18:57;5.40;99.90
15700;DHT22;7950;42.744;23.174;2022-12-07T02:21:34;5.30;99.90
15700;DHT22;7950;42.744;23.174;2022-12-07T02:24:41;5.30;99.90
15700;DHT22;7950;42.744;23.174;2022-12-07T02:27:38;5.30;99.90
15700;DHT22;7950;42.744;23.174;2022-12-07T02:30:12;5.30;99.90
15700;DHT22;7950;42.744;23.174;2022-12-07T02:32:48;5.30;99.90
15700;DHT22;7950;42.744;23.174;2022-12-07T02:35:21;5.20;99.90
15700;DHT22;7950;42.744;23.174;2022-12-07T02:37:58;5.20;99.90
15700;DHT22;7950;42.744;23.174;2022-12-07T02:40:33;5.20;99.90
15700;DHT22;7950;42.744;23.174;2022-12-07T02:43:06;5.20;99.90
15700;DHT22;7950;42.744;23.174;2022-12-07T02:45:39;5.20;99.90
15700;DHT22;7950;42.744;23.174;2022-12-07T02:48:10;5.10;99.90
15700;DHT22;7950;42.744;23.174;2022-12-07T02:50:44;5.10;99.90
15700;DHT22;7950;42.744;23.174;2022-12-07T02:53:28;5.10;99.90
15700;DHT22;7950;42.744;23.174;2022-12-07T02:55:56;5.00;99.90
15700;DHT22;7950;42.744;23.174;2022-12-07T02:58:33;4.90;99.90
15700;DHT22;7950;42.744;23.174;2022-12-07T03:01:15;4.90;99.90
15700;DHT22;7950;42.744;23.174;2022-12-07T03:04:04;4.90;99.90
15700;DHT22;7950;42.744;23.174;2022-12-07T03:06:39;4.90;99.90
15700;DHT22;7950;42.744;23.174;2022-12-07T03:09:15;4.80;99.90
15700;DHT22;7950;42.744;23.174;2022-12-07T03:12:12;4.80;99.90
15700;DHT22;7950;42.744;23.174;2022-12-07T03:14:47;4.80;99.90
15700;DHT22;7950;42.744;23.174;2022-12-07T03:17:23;4.80;99.90
15700;DHT22;7950;42.744;23.174;2022-12-07T03:19:55;4.80;99.90
15700;DHT22;7950;42.744;23.174;2022-12-07T03:22:29;4.80;99.90
15700;DHT22;7950;42.744;23.174;2022-12-07T03:25:01;4.80;99.90
15700;DHT22;7950;42.744;23.174;2022-12-07T03:27:34;4.70;99.90
15700;DHT22;7950;42.744;23.174;2022-12-07T03:30:06;4.80;99.90
15700;DHT22;7950;42.744;23.174;2022-12-07T03:32:40;4.80;99.90
15700;DHT22;7950;42.744;23.174;2022-12-07T03:35:14;4.80;99.90
15700;DHT22;7950;42.744;23.174;2022-12-07T03:37:47;4.80;99.90
15700;DHT22;7950;42.744;23.174;2022-12-07T03:40:21;4.80;99.90
15700;DHT22;7950;42.744;23.174;2022-12-07T03:43:15;4.80;99.90
15700;DHT22;7950;42.744;23.174;2022-12-07T03:45:47;4.70;99.90
15700;DHT22;7950;42.744;23.174;2022-12-07T03:48:24;4.70;99.90
15700;DHT22;7950;42.744;23.174;2022-12-07T03:50:55;4.70;99.90
15700;DHT22;7950;42.744;23.174;2022-12-07T03:53:34;4.70;99.90
15700;DHT22;7950;42.744;23.174;2022-12-07T03:56:23;4.80;99.90
15700;DHT22;7950;42.744;23.174;2022-12-07T03:58:52;4.70;99.90
15700;DHT22;7950;42.744;23.174;2022-12-07T04:01:22;4.70;99.90
15700;DHT22;7950;42.744;23.174;2022-12-07T04:03:52;4.80;99.90
15700;DHT22;7950;42.744;23.174;2022-12-07T04:06:21;4.80;99.90
15700;DHT22;7950;42.744;23.174;2022-12-07T04:08:49;4.80;99.90
15700;DHT22;7950;42.744;23.174;2022-12-07T04:11:17;4.80;99.90
15700;DHT22;7950;42.744;23.174;2022-12-07T04:13:46;4.80;99.90
15700;DHT22;7950;42.744;23.174;2022-12-07T04:16:53;4.80;99.90
15700;DHT22;7950;42.744;23.174;2022-12-07T04:19:26;4.80;99.90
15700;DHT22;7950;42.744;23.174;2022-12-07T04:21:55;4.80;99.90
15700;DHT22;7950;42.744;23.174;2022-12-07T04:24:24;4.80;99.90
15700;DHT22;7950;42.744;23.174;2022-12-07T04:26:53;4.80;99.90
15700;DHT22;7950;42.744;23.174;2022-12-07T04:29:21;4.80;99.90
15700;DHT22;7950;42.744;23.174;2022-12-07T04:31:50;4.80;99.90
15700;DHT22;7950;42.744;23.174;2022-12-07T04:34:19;4.80;99.90
15700;DHT22;7950;42.744;23.174;2022-12-07T04:36:49;4.80;99.90
15700;DHT22;7950;42.744;23.174;2022-12-07T04:39:20;4.80;99.90
15700;DHT22;7950;42.744;23.174;2022-12-07T04:41:49;4.80;99.90
15700;DHT22;7950;42.744;23.174;2022-12-07T04:44:18;4.80;99.90
15700;DHT22;7950;42.744;23.174;2022-12-07T04:46:47;4.80;99.90
15700;DHT22;7950;42.744;23.174;2022-12-07T04:49:16;4.80;99.90
15700;DHT22;7950;42.744;23.174;2022-12-07T04:51:45;4.80;99.90
15700;DHT22;7950;42.744;23.174;2022-12-07T04:54:15;4.90;99.90
15700;DHT22;7950;42.744;23.174;2022-12-07T04:56:44;4.90;99.90
15700;DHT22;7950;42.744;23.174;2022-12-07T04:59:13;4.90;99.90
15700;DHT22;7950;42.744;23.174;2022-12-07T05:01:42;4.90;99.90
15700;DHT22;7950;42.744;23.174;2022-12-07T05:04:11;4.90;99.90
15700;DHT22;7950;42.744;23.174;2022-12-07T05:06:39;4.90;99.90
15700;DHT22;7950;42.744;23.174;2022-12-07T05:09:07;4.90;99.90
15700;DHT22;7950;42.744;23.174;2022-12-07T05:11:37;4.90;99.90
15700;DHT22;7950;42.744;23.174;2022-12-07T05:14:12;4.80;99.90
15700;DHT22;7950;42.744;23.174;2022-12-07T05:16:41;4.80;99.90
15700;DHT22;7950;42.744;23.174;2022-12-07T05:19:10;4.80;99.90
15700;DHT22;7950;42.744;23.174;2022-12-07T05:21:39;4.70;99.90
15700;DHT22;7950;42.744;23.174;2022-12-07T05:24:09;4.70;99.90
15700;DHT22;7950;42.744;23.174;2022-12-07T05:26:39;4.70;99.90
15700;DHT22;7950;42.744;23.174;2022-12-07T05:29:10;4.70;99.90
15700;DHT22;7950;42.744;23.174;2022-12-07T05:31:39;4.70;99.90
15700;DHT22;7950;42.744;23.174;2022-12-07T05:34:07;4.60;99.90
15700;DHT22;7950;42.744;23.174;2022-12-07T05:36:36;4.60;99.90
15700;DHT22;7950;42.744;23.174;2022-12-07T05:39:04;4.60;99.90
15700;DHT22;7950;42.744;23.174;2022-12-07T05:41:34;4.60;99.90
15700;DHT22;7950;42.744;23.174;2022-12-07T05:44:21;4.60;99.90
15700;DHT22;7950;42.744;23.174;2022-12-07T05:46:49;4.60;99.90
15700;DHT22;7950;42.744;23.174;2022-12-07T05:49:17;4.50;99.90
15700;DHT22;7950;42.744;23.174;2022-12-07T05:51:45;4.50;99.90
15700;DHT22;7950;42.744;23.174;2022-12-07T05:54:14;4.50;99.90
15700;DHT22;7950;42.744;23.174;2022-12-07T05:56:42;4.50;99.90
15700;DHT22;7950;42.744;23.174;2022-12-07T05:59:10;4.50;99.90
15700;DHT22;7950;42.744;23.174;2022-12-07T06:01:53;4.50;99.90
15700;DHT22;7950;42.744;23.174;2022-12-07T06:04:23;4.50;99.90
15700;DHT22;7950;42.744;23.174;2022-12-07T06:07:03;4.50;99.90
15700;DHT22;7950;42.744;23.174;2022-12-07T06:09:32;4.50;99.90
15700;DHT22;7950;42.744;23.174;2022-12-07T06:12:01;4.50;99.90
15700;DHT22;7950;42.744;23.174;2022-12-07T06:14:46;4.50;99.90
15700;DHT22;7950;42.744;23.174;2022-12-07T06:17:16;4.50;99.90
15700;DHT22;7950;42.744;23.174;2022-12-07T06:19:45;4.50;99.90
15700;DHT22;7950;42.744;23.174;2022-12-07T06:22:13;4.50;99.90
15700;DHT22;7950;42.744;23.174;2022-12-07T06:24:43;4.50;99.90
15700;DHT22;7950;42.744;23.174;2022-12-07T06:27:11;4.50;99.90
15700;DHT22;7950;42.744;23.174;2022-12-07T06:29:39;4.50;99.90
15700;DHT22;7950;42.744;23.174;2022-12-07T06:32:08;4.60;99.90
15700;DHT22;7950;42.744;23.174;2022-12-07T06:35:03;4.60;99.90
15700;DHT22;7950;42.744;23.174;2022-12-07T06:37:31;4.60;99.90
15700;DHT22;7950;42.744;23.174;2022-12-07T06:39:59;4.60;99.90
15700;DHT22;7950;42.744;23.174;2022-12-07T06:42:28;4.60;99.90
15700;DHT22;7950;42.744;23.174;2022-12-07T06:44:57;4.70;99.90
15700;DHT22;7950;42.744;23.174;2022-12-07T06:47:25;4.70;99.90
15700;DHT22;7950;42.744;23.174;2022-12-07T06:50:14;4.70;99.90
15700;DHT22;7950;42.744;23.174;2022-12-07T06:52:42;4.70;99.90
15700;DHT22;7950;42.744;23.174;2022-12-07T06:55:11;4.80;99.90
15700;DHT22;7950;42.744;23.174;2022-12-07T06:57:39;4.80;99.90
15700;DHT22;7950;42.744;23.174;2022-12-07T07:00:08;4.90;99.90
15700;DHT22;7950;42.744;23.174;2022-12-07T07:02:37;4.90;99.90
15700;DHT22;7950;42.744;23.174;2022-12-07T07:05:05;5.00;99.90
15700;DHT22;7950;42.744;23.174;2022-12-07T07:07:35;5.00;99.90
15700;DHT22;7950;42.744;23.174;2022-12-07T07:10:23;5.00;99.90
15700;DHT22;7950;42.744;23.174;2022-12-07T07:12:51;5.10;99.90
15700;DHT22;7950;42.744;23.174;2022-12-07T07:15:23;5.20;99.90
15700;DHT22;7950;42.744;23.174;2022-12-07T07:17:51;5.20;99.90
15700;DHT22;7950;42.744;23.174;2022-12-07T07:20:20;5.30;99.90
15700;DHT22;7950;42.744;23.174;2022-12-07T07:22:50;5.30;99.90
15700;DHT22;7950;42.744;23.174;2022-12-07T07:25:18;5.30;99.90
15700;DHT22;7950;42.744;23.174;2022-12-07T07:27:46;5.40;99.90
15700;DHT22;7950;42.744;23.174;2022-12-07T07:30:15;5.40;99.90
15700;DHT22;7950;42.744;23.174;2022-12-07T07:32:43;5.50;99.90
15700;DHT22;7950;42.744;23.174;2022-12-07T07:35:11;5.60;99.90
15700;DHT22;7950;42.744;23.174;2022-12-07T07:37:51;5.70;99.90
15700;DHT22;7950;42.744;23.174;2022-12-07T07:40:19;5.80;99.90
15700;DHT22;7950;42.744;23.174;2022-12-07T07:42:48;5.90;99.90
15700;DHT22;7950;42.744;23.174;2022-12-07T07:45:16;6.00;99.90
15700;DHT22;7950;42.744;23.174;2022-12-07T07:47:45;6.20;99.90
15700;DHT22;7950;42.744;23.174;2022-12-07T07:50:13;6.20;99.90
15700;DHT22;7950;42.744;23.174;2022-12-07T07:52:43;6.40;99.90
15700;DHT22;7950;42.744;23.174;2022-12-07T07:55:13;6.40;99.90
15700;DHT22;7950;42.744;23.174;2022-12-07T07:57:42;6.50;99.90
15700;DHT22;7950;42.744;23.174;2022-12-07T08:00:17;6.60;99.90
15700;DHT22;7950;42.744;23.174;2022-12-07T08:02:46;6.60;99.90
15700;DHT22;7950;42.744;23.174;2022-12-07T08:05:14;6.60;99.90
15700;DHT22;7950;42.744;23.174;2022-12-07T08:07:43;6.60;99.90
15700;DHT22;7950;42.744;23.174;2022-12-07T08:10:40;6.60;99.90
15700;DHT22;7950;42.744;23.174;2022-12-07T08:13:08;6.60;99.90
15700;DHT22;7950;42.744;23.174;2022-12-07T08:15:42;6.70;99.90
15700;DHT22;7950;42.744;23.174;2022-12-07T08:18:11;7.10;99.90
15700;DHT22;7950;42.744;23.174;2022-12-07T08:20:41;7.70;99.90
15700;DHT22;7950;42.744;23.174;2022-12-07T08:23:10;8.40;99.90
15700;DHT22;7950;42.744;23.174;2022-12-07T08:25:40;9.00;99.90
15700;DHT22;7950;42.744;23.174;2022-12-07T08:28:08;9.60;99.90
15700;DHT22;7950;42.744;23.174;2022-12-07T08:30:37;10.10;99.90
15700;DHT22;7950;42.744;23.174;2022-12-07T08:33:05;10.90;99.90
15700;DHT22;7950;42.744;23.174;2022-12-07T08:35:34;11.50;99.90
15700;DHT22;7950;42.744;23.174;2022-12-07T08:38:02;11.50;99.90
15700;DHT22;7950;42.744;23.174;2022-12-07T08:40:31;11.20;99.90
15700;DHT22;7950;42.744;23.174;2022-12-07T08:43:01;10.80;99.90
15700;DHT22;7950;42.744;23.174;2022-12-07T08:45:29;10.80;99.90
15700;DHT22;7950;42.744;23.174;2022-12-07T08:48:06;11.00;99.90
15700;DHT22;7950;42.744;23.174;2022-12-07T08:50:36;10.60;99.90
15700;DHT22;7950;42.744;23.174;2022-12-07T08:53:11;10.20;99.90
15700;DHT22;7950;42.744;23.174;2022-12-07T08:55:40;10.40;99.90
15700;DHT22;7950;42.744;23.174;2022-12-07T08:58:09;11.10;99.90
15700;DHT22;7950;42.744;23.174;2022-12-07T09:01:03;11.70;99.90
15700;DHT22;7950;42.744;23.174;2022-12-07T09:03:32;12.20;99.90
15700;DHT22;7950;42.744;23.174;2022-12-07T09:06:00;12.00;99.90
15700;DHT22;7950;42.744;23.174;2022-12-07T09:08:33;11.50;99.90
15700;DHT22;7950;42.744;23.174;2022-12-07T09:11:04;10.90;99.90
15700;DHT22;7950;42.744;23.174;2022-12-07T09:13:34;10.40;99.90
15700;DHT22;7950;42.744;23.174;2022-12-07T09:16:03;9.90;99.90
15700;DHT22;7950;42.744;23.174;2022-12-07T09:18:31;9.60;99.90
15700;DHT22;7950;42.744;23.174;2022-12-07T09:21:00;9.60;99.90
15700;DHT22;7950;42.744;23.174;2022-12-07T09:23:28;9.70;99.90
15700;DHT22;7950;42.744;23.174;2022-12-07T09:25:59;9.70;99.90
15700;DHT22;7950;42.744;23.174;2022-12-07T09:28:34;9.60;99.90
15700;DHT22;7950;42.744;23.174;2022-12-07T09:31:03;9.40;99.90
15700;DHT22;7950;42.744;23.174;2022-12-07T09:33:54;9.30;99.90
15700;DHT22;7950;42.744;23.174;2022-12-07T09:36:23;9.20;99.90
15700;DHT22;7950;42.744;23.174;2022-12-07T09:38:52;9.10;99.90
15700;DHT22;7950;42.744;23.174;2022-12-07T09:41:21;9.00;99.90
15700;DHT22;7950;42.744;23.174;2022-12-07T09:43:53;8.80;99.90
15700;DHT22;7950;42.744;23.174;2022-12-07T09:46:22;8.80;99.90
15700;DHT22;7950;42.744;23.174;2022-12-07T09:48:51;8.80;99.90
15700;DHT22;7950;42.744;23.174;2022-12-07T09:51:21;8.90;99.90
15700;DHT22;7950;42.744;23.174;2022-12-07T09:53:53;8.90;99.90
15700;DHT22;7950;42.744;23.174;2022-12-07T09:56:23;9.00;99.90
15700;DHT22;7950;42.744;23.174;2022-12-07T09:58:58;9.10;99.90
15700;DHT22;7950;42.744;23.174;2022-12-07T10:01:29;9.10;99.90
15700;DHT22;7950;42.744;23.174;2022-12-07T10:04:09;9.00;99.90
15700;DHT22;7950;42.744;23.174;2022-12-07T10:06:40;8.80;99.90
15700;DHT22;7950;42.744;23.174;2022-12-07T10:09:10;8.70;99.90
15700;DHT22;7950;42.744;23.174;2022-12-07T10:12:01;8.60;99.90
15700;DHT22;7950;42.744;23.174;2022-12-07T10:14:32;8.60;99.90
15700;DHT22;7950;42.744;23.174;2022-12-07T10:17:36;8.80;99.90
15700;DHT22;7950;42.744;23.174;2022-12-07T10:20:13;8.90;99.90
15700;DHT22;7950;42.744;23.174;2022-12-07T10:22:55;9.00;99.90
15700;DHT22;7950;42.744;23.174;2022-12-07T10:25:26;9.00;99.90
15700;DHT22;7950;42.744;23.174;2022-12-07T10:28:02;9.10;99.90
15700;DHT22;7950;42.744;23.174;2022-12-07T10:30:32;9.00;99.90
15700;DHT22;7950;42.744;23.174;2022-12-07T10:33:01;9.10;99.90
15700;DHT22;7950;42.744;23.174;2022-12-07T10:35:30;9.10;99.90
15700;DHT22;7950;42.744;23.174;2022-12-07T10:37:59;9.10;99.90
15700;DHT22;7950;42.744;23.174;2022-12-07T10:40:31;9.20;99.90
15700;DHT22;7950;42.744;23.174;2022-12-07T10:43:17;9.30;99.90
15700;DHT22;7950;42.744;23.174;2022-12-07T10:46:20;9.30;99.90
15700;DHT22;7950;42.744;23.174;2022-12-07T10:48:59;9.40;99.90
15700;DHT22;7950;42.744;23.174;2022-12-07T10:51:36;9.50;99.90
15700;DHT22;7950;42.744;23.174;2022-12-07T10:54:11;9.80;99.90
15700;DHT22;7950;42.744;23.174;2022-12-07T10:57:10;10.20;99.90
15700;DHT22;7950;42.744;23.174;2022-12-07T11:00:04;10.60;99.90
15700;DHT22;7950;42.744;23.174;2022-12-07T11:02:55;10.90;99.90
15700;DHT22;7950;42.744;23.174;2022-12-07T11:05:28;11.10;99.90
15700;DHT22;7950;42.744;23.174;2022-12-07T11:08:12;11.30;99.90
15700;DHT22;7950;42.744;23.174;2022-12-07T11:10:48;11.50;99.90
15700;DHT22;7950;42.744;23.174;2022-12-07T11:13:25;11.50;99.90
15700;DHT22;7950;42.744;23.174;2022-12-07T11:16:17;11.50;99.90
15700;DHT22;7950;42.744;23.174;2022-12-07T11:19:29;11.50;99.90
15700;DHT22;7950;42.744;23.174;2022-12-07T11:22:04;11.50;99.90
15700;DHT22;7950;42.744;23.174;2022-12-07T11:24:40;11.40;99.90
15700;DHT22;7950;42.744;23.174;2022-12-07T11:27:21;11.40;99.90
15700;DHT22;7950;42.744;23.174;2022-12-07T11:30:03;11.40;99.90
15700;DHT22;7950;42.744;23.174;2022-12-07T11:32:55;11.30;99.90
15700;DHT22;7950;42.744;23.174;2022-12-07T11:35:35;11.30;99.90
15700;DHT22;7950;42.744;23.174;2022-12-07T11:38:11;11.40;99.90
15700;DHT22;7950;42.744;23.174;2022-12-07T11:40:43;11.40;99.90
15700;DHT22;7950;42.744;23.174;2022-12-07T11:43:20;11.50;99.90
15700;DHT22;7950;42.744;23.174;2022-12-07T11:45:56;11.50;99.90
15700;DHT22;7950;42.744;23.174;2022-12-07T11:48:31;11.30;99.90
15700;DHT22;7950;42.744;23.174;2022-12-07T11:51:03;11.10;99.90
15700;DHT22;7950;42.744;23.174;2022-12-07T11:53:35;11.00;99.90
15700;DHT22;7950;42.744;23.174;2022-12-07T11:56:09;11.00;99.90
15700;DHT22;7950;42.744;23.174;2022-12-07T11:58:45;10.90;99.90
15700;DHT22;7950;42.744;23.174;2022-12-07T12:01:26;10.80;99.90
15700;DHT22;7950;42.744;23.174;2022-12-07T12:04:02;10.70;99.90
15700;DHT22;7950;42.744;23.174;2022-12-07T12:06:36;10.70;99.90
15700;DHT22;7950;42.744;23.174;2022-12-07T12:09:06;10.70;99.90
15700;DHT22;7950;42.744;23.174;2022-12-07T12:12:36;10.70;99.90
15700;DHT22;7950;42.744;23.174;2022-12-07T12:15:57;10.60;99.90
15700;DHT22;7950;42.744;23.174;2022-12-07T12:18:52;10.50;99.90
15700;DHT22;7950;42.744;23.174;2022-12-07T12:21:26;10.50;99.90
15700;DHT22;7950;42.744;23.174;2022-12-07T12:24:00;10.60;99.90
15700;DHT22;7950;42.744;23.174;2022-12-07T12:26:32;10.80;99.90
15700;DHT22;7950;42.744;23.174;2022-12-07T12:29:03;10.80;99.90
15700;DHT22;7950;42.744;23.174;2022-12-07T12:31:36;10.70;99.90
15700;DHT22;7950;42.744;23.174;2022-12-07T12:34:30;10.80;99.90
15700;DHT22;7950;42.744;23.174;2022-12-07T12:36:59;10.70;99.90
15700;DHT22;7950;42.744;23.174;2022-12-07T12:39:29;10.70;99.90
15700;DHT22;7950;42.744;23.174;2022-12-07T12:42:01;10.80;99.90
15700;DHT22;7950;42.744;23.174;2022-12-07T12:47:57;11.00;99.90
15700;DHT22;7950;42.744;23.174;2022-12-07T12:50:29;11.10;99.90
15700;DHT22;7950;42.744;23.174;2022-12-07T12:53:36;11.10;99.90
15700;DHT22;7950;42.744;23.174;2022-12-07T12:56:29;11.10;99.90
15700;DHT22;7950;42.744;23.174;2022-12-07T12:59:23;11.10;99.90
15700;DHT22;7950;42.744;23.174;2022-12-07T13:01:55;11.10;99.90
15700;DHT22;7950;42.744;23.174;2022-12-07T13:04:34;11.10;99.90
15700;DHT22;7950;42.744;23.174;2022-12-07T13:07:08;11.00;99.90
15700;DHT22;7950;42.744;23.174;2022-12-07T13:09:43;10.80;99.90
15700;DHT22;7950;42.744;23.174;2022-12-07T13:12:15;10.70;99.90
15700;DHT22;7950;42.744;23.174;2022-12-07T13:15:27;10.60;99.90
15700;DHT22;7950;42.744;23.174;2022-12-07T13:18:02;10.50;99.90
15700;DHT22;7950;42.744;23.174;2022-12-07T13:20:49;10.40;99.90
15700;DHT22;7950;42.744;23.174;2022-12-07T13:23:34;10.30;99.90
15700;DHT22;7950;42.744;23.174;2022-12-07T13:26:14;10.10;99.90
15700;DHT22;7950;42.744;23.174;2022-12-07T13:28:46;10.00;99.90
15700;DHT22;7950;42.744;23.174;2022-12-07T13:31:32;9.90;99.90
15700;DHT22;7950;42.744;23.174;2022-12-07T13:34:03;10.10;99.90
15700;DHT22;7950;42.744;23.174;2022-12-07T13:36:36;10.10;99.90
15700;DHT22;7950;42.744;23.174;2022-12-07T13:39:19;10.10;99.90
15700;DHT22;7950;42.744;23.174;2022-12-07T13:41:51;10.20;99.90
15700;DHT22;7950;42.744;23.174;2022-12-07T13:44:44;10.30;99.90
15700;DHT22;7950;42.744;23.174;2022-12-07T13:47:16;10.40;99.90
15700;DHT22;7950;42.744;23.174;2022-12-07T13:49:50;10.50;99.90
15700;DHT22;7950;42.744;23.174;2022-12-07T13:52:22;10.50;99.90
15700;DHT22;7950;42.744;23.174;2022-12-07T13:54:57;10.60;99.90
15700;DHT22;7950;42.744;23.174;2022-12-07T13:57:36;10.60;99.90
15700;DHT22;7950;42.744;23.174;2022-12-07T14:00:13;10.60;99.90
15700;DHT22;7950;42.744;23.174;2022-12-07T14:02:59;10.60;99.90
15700;DHT22;7950;42.744;23.174;2022-12-07T14:05:30;10.50;99.90
15700;DHT22;7950;42.744;23.174;2022-12-07T14:08:00;10.60;99.90
15700;DHT22;7950;42.744;23.174;2022-12-07T14:10:30;10.60;99.90
15700;DHT22;7950;42.744;23.174;2022-12-07T14:12:59;10.50;99.90
15700;DHT22;7950;42.744;23.174;2022-12-07T14:15:32;10.50;99.90
15700;DHT22;7950;42.744;23.174;2022-12-07T14:18:02;10.40;99.90
15700;DHT22;7950;42.744;23.174;2022-12-07T14:20:35;10.30;99.90
15700;DHT22;7950;42.744;23.174;2022-12-07T14:23:05;10.20;99.90
15700;DHT22;7950;42.744;23.174;2022-12-07T14:25:45;10.00;99.90
15700;DHT22;7950;42.744;23.174;2022-12-07T14:28:28;9.90;99.90
15700;DHT22;7950;42.744;23.174;2022-12-07T14:30:56;9.80;99.90
15700;DHT22;7950;42.744;23.174;2022-12-07T14:33:25;9.70;99.90
15700;DHT22;7950;42.744;23.174;2022-12-07T14:35:55;9.70;99.90
15700;DHT22;7950;42.744;23.174;2022-12-07T14:38:32;9.60;99.90
15700;DHT22;7950;42.744;23.174;2022-12-07T14:41:01;9.50;99.90
15700;DHT22;7950;42.744;23.174;2022-12-07T14:43:43;9.30;99.90
15700;DHT22;7950;42.744;23.174;2022-12-07T14:46:31;9.20;99.90
15700;DHT22;7950;42.744;23.174;2022-12-07T14:48:59;9.10;99.90
15700;DHT22;7950;42.744;23.174;2022-12-07T14:51:49;9.00;99.90
15700;DHT22;7950;42.744;23.174;2022-12-07T14:54:37;8.90;99.90
15700;DHT22;7950;42.744;23.174;2022-12-07T14:57:08;8.70;99.90
15700;DHT22;7950;42.744;23.174;2022-12-07T14:59:36;8.70;99.90
15700;DHT22;7950;42.744;23.174;2022-12-07T15:02:12;8.50;99.90
15700;DHT22;7950;42.744;23.174;2022-12-07T15:05:07;8.40;99.90
15700;DHT22;7950;42.744;23.174;2022-12-07T15:07:43;8.30;99.90
15700;DHT22;7950;42.744;23.174;2022-12-07T15:10:16;8.20;99.90
15700;DHT22;7950;42.744;23.174;2022-12-07T15:12:50;8.10;99.90
15700;DHT22;7950;42.744;23.174;2022-12-07T15:15:18;8.00;99.90
15700;DHT22;7950;42.744;23.174;2022-12-07T15:18:11;7.90;99.90
15700;DHT22;7950;42.744;23.174;2022-12-07T15:20:39;7.90;99.90
15700;DHT22;7950;42.744;23.174;2022-12-07T15:23:09;7.80;99.90
15700;DHT22;7950;42.744;23.174;2022-12-07T15:25:40;7.70;99.90
15700;DHT22;7950;42.744;23.174;2022-12-07T15:28:09;7.50;99.90
15700;DHT22;7950;42.744;23.174;2022-12-07T15:30:37;7.40;99.90
15700;DHT22;7950;42.744;23.174;2022-12-07T15:33:06;7.30;99.90
15700;DHT22;7950;42.744;23.174;2022-12-07T15:35:38;7.20;99.90
15700;DHT22;7950;42.744;23.174;2022-12-07T15:38:06;7.10;99.90
15700;DHT22;7950;42.744;23.174;2022-12-07T15:40:37;7.00;99.90
15700;DHT22;7950;42.744;23.174;2022-12-07T15:43:05;6.90;99.90
15700;DHT22;7950;42.744;23.174;2022-12-07T15:45:56;6.80;99.90
15700;DHT22;7950;42.744;23.174;2022-12-07T15:48:23;6.60;99.90
15700;DHT22;7950;42.744;23.174;2022-12-07T15:51:01;6.50;99.90
15700;DHT22;7950;42.744;23.174;2022-12-07T15:53:30;6.40;99.90
15700;DHT22;7950;42.744;23.174;2022-12-07T15:55:59;6.40;99.90
15700;DHT22;7950;42.744;23.174;2022-12-07T15:58:28;6.30;99.90
15700;DHT22;7950;42.744;23.174;2022-12-07T16:00:56;6.20;99.90
15700;DHT22;7950;42.744;23.174;2022-12-07T16:03:24;6.10;99.90
15700;DHT22;7950;42.744;23.174;2022-12-07T16:05:53;6.10;99.90
15700;DHT22;7950;42.744;23.174;2022-12-07T16:08:21;6.00;99.90
15700;DHT22;7950;42.744;23.174;2022-12-07T16:10:49;6.00;99.90
15700;DHT22;7950;42.744;23.174;2022-12-07T16:13:19;6.00;99.90
15700;DHT22;7950;42.744;23.174;2022-12-07T16:15:47;5.90;99.90
15700;DHT22;7950;42.744;23.174;2022-12-07T16:18:16;6.00;99.90
15700;DHT22;7950;42.744;23.174;2022-12-07T16:20:47;5.90;99.90
15700;DHT22;7950;42.744;23.174;2022-12-07T16:23:16;5.80;99.90
15700;DHT22;7950;42.744;23.174;2022-12-07T16:25:44;5.90;99.90
15700;DHT22;7950;42.744;23.174;2022-12-07T16:28:12;5.80;99.90
15700;DHT22;7950;42.744;23.174;2022-12-07T16:30:42;5.80;99.90